sensor_id;sensor_type;location;lat;lon;timestamp;P1;durP1;ratioP1;P2;durP2;ratioP2
72621;SDS011;60665;53.506;9.582;2022-12-20T04:13:29;10.40;;;5.32;;
72621;SDS011;60665;53.506;9.582;2022-12-20T04:15:54;10.90;;;4.90;;
72621;SDS011;60665;53.506;9.582;2022-12-20T04:18:19;10.68;;;4.93;;
72621;SDS011;60665;53.506;9.582;2022-12-20T04:20:50;9.10;;;4.90;;
72621;SDS011;60665;53.506;9.582;2022-12-20T04:23:16;8.82;;;4.30;;
72621;SDS011;60665;53.506;9.582;2022-12-20T04:25:42;11.50;;;5.00;;
72621;SDS011;60665;53.506;9.582;2022-12-20T04:28:07;11.50;;;5.03;;
72621;SDS011;60665;53.506;9.582;2022-12-20T04:30:32;8.63;;;4.65;;
72621;SDS011;60665;53.506;9.582;2022-12-20T04:32:58;10.15;;;4.85;;
72621;SDS011;60665;53.506;9.582;2022-12-20T04:35:23;11.27;;;4.82;;
72621;SDS011;60665;53.506;9.582;2022-12-20T04:37:48;10.48;;;4.95;;
72621;SDS011;60665;53.506;9.582;2022-12-20T04:40:14;10.93;;;5.25;;
72621;SDS011;60665;53.506;9.582;2022-12-20T04:42:39;9.60;;;4.50;;
72621;SDS011;60665;53.506;9.582;2022-12-20T04:45:05;11.85;;;5.50;;
72621;SDS011;60665;53.506;9.582;2022-12-20T04:47:30;11.98;;;5.28;;
72621;SDS011;60665;53.506;9.582;2022-12-20T04:49:56;10.77;;;5.15;;
72621;SDS011;60665;53.506;9.582;2022-12-20T04:52:21;11.82;;;4.85;;
72621;SDS011;60665;53.506;9.582;2022-12-20T04:55:05;8.15;;;4.72;;
72621;SDS011;60665;53.506;9.582;2022-12-20T04:57:31;10.15;;;5.32;;
72621;SDS011;60665;53.506;9.582;2022-12-20T04:59:56;10.18;;;4.70;;
72621;SDS011;60665;53.506;9.582;2022-12-20T05:02:21;8.60;;;5.03;;
72621;SDS011;60665;53.506;9.582;2022-12-20T05:04:47;12.50;;;5.43;;
72621;SDS011;60665;53.506;9.582;2022-12-20T05:07:12;10.73;;;5.20;;
72621;SDS011;60665;53.506;9.582;2022-12-20T05:09:37;11.93;;;5.43;;
72621;SDS011;60665;53.506;9.582;2022-12-20T05:12:03;11.32;;;5.10;;
72621;SDS011;60665;53.506;9.582;2022-12-20T05:14:28;10.77;;;5.85;;
72621;SDS011;60665;53.506;9.582;2022-12-20T05:16:54;11.43;;;5.50;;
72621;SDS011;60665;53.506;9.582;2022-12-20T05:19:19;11.27;;;5.50;;
72621;SDS011;60665;53.506;9.582;2022-12-20T05:21:44;11.15;;;5.15;;
72621;SDS011;60665;53.506;9.582;2022-12-20T05:24:28;10.95;;;5.25;;
72621;SDS011;60665;53.506;9.582;2022-12-20T05:27:12;10.23;;;4.90;;
72621;SDS011;60665;53.506;9.582;2022-12-20T05:29:37;9.25;;;4.95;;
72621;SDS011;60665;53.506;9.582;2022-12-20T05:32:03;13.25;;;5.72;;
72621;SDS011;60665;53.506;9.582;2022-12-20T05:34:28;12.93;;;5.22;;
72621;SDS011;60665;53.506;9.582;2022-12-20T05:36:54;13.43;;;5.68;;
72621;SDS011;60665;53.506;9.582;2022-12-20T05:39:20;9.77;;;5.15;;
72621;SDS011;60665;53.506;9.582;2022-12-20T05:41:45;9.30;;;4.90;;
72621;SDS011;60665;53.506;9.582;2022-12-20T05:44:11;14.57;;;5.63;;
72621;SDS011;60665;53.506;9.582;2022-12-20T05:46:36;13.50;;;5.45;;
72621;SDS011;60665;53.506;9.582;2022-12-20T05:49:02;13.32;;;5.50;;
72621;SDS011;60665;53.506;9.582;2022-12-20T05:51:27;10.95;;;5.32;;
72621;SDS011;60665;53.506;9.582;2022-12-20T05:53:53;12.25;;;5.80;;
72621;SDS011;60665;53.506;9.582;2022-12-20T05:56:19;9.63;;;5.20;;
72621;SDS011;60665;53.506;9.582;2022-12-20T05:58:44;11.73;;;6.13;;
72621;SDS011;60665;53.506;9.582;2022-12-20T06:01:09;12.02;;;5.35;;
72621;SDS011;60665;53.506;9.582;2022-12-20T06:03:35;10.18;;;4.95;;
72621;SDS011;60665;53.506;9.582;2022-12-20T06:06:01;11.75;;;5.55;;
72621;SDS011;60665;53.506;9.582;2022-12-20T06:08:27;12.27;;;5.95;;
72621;SDS011;60665;53.506;9.582;2022-12-20T06:10:52;11.90;;;5.50;;
72621;SDS011;60665;53.506;9.582;2022-12-20T06:13:18;13.02;;;5.78;;
72621;SDS011;60665;53.506;9.582;2022-12-20T06:15:43;13.80;;;5.60;;
72621;SDS011;60665;53.506;9.582;2022-12-20T06:18:09;11.57;;;5.78;;
72621;SDS011;60665;53.506;9.582;2022-12-20T06:20:35;10.70;;;5.53;;
72621;SDS011;60665;53.506;9.582;2022-12-20T06:23:01;11.73;;;5.38;;
72621;SDS011;60665;53.506;9.582;2022-12-20T06:25:27;11.88;;;5.43;;
72621;SDS011;60665;53.506;9.582;2022-12-20T06:27:53;12.38;;;5.32;;
72621;SDS011;60665;53.506;9.582;2022-12-20T06:30:18;10.50;;;5.32;;
72621;SDS011;60665;53.506;9.582;2022-12-20T06:32:44;11.02;;;5.25;;
72621;SDS011;60665;53.506;9.582;2022-12-20T06:35:09;11.38;;;5.53;;
72621;SDS011;60665;53.506;9.582;2022-12-20T06:37:35;15.27;;;5.05;;
72621;SDS011;60665;53.506;9.582;2022-12-20T06:40:00;11.50;;;5.35;;
72621;SDS011;60665;53.506;9.582;2022-12-20T06:42:26;9.95;;;5.45;;
72621;SDS011;60665;53.506;9.582;2022-12-20T06:44:52;10.05;;;5.13;;
72621;SDS011;60665;53.506;9.582;2022-12-20T06:47:17;12.63;;;5.55;;
72621;SDS011;60665;53.506;9.582;2022-12-20T06:49:43;10.70;;;5.20;;
72621;SDS011;60665;53.506;9.582;2022-12-20T06:52:08;13.07;;;5.45;;
72621;SDS011;60665;53.506;9.582;2022-12-20T06:54:33;9.20;;;4.90;;
72621;SDS011;60665;53.506;9.582;2022-12-20T06:56:59;9.75;;;5.43;;
72621;SDS011;60665;53.506;9.582;2022-12-20T06:59:24;12.35;;;4.82;;
72621;SDS011;60665;53.506;9.582;2022-12-20T07:01:50;10.27;;;5.05;;
72621;SDS011;60665;53.506;9.582;2022-12-20T07:04:15;8.77;;;4.95;;
72621;SDS011;60665;53.506;9.582;2022-12-20T07:06:41;10.55;;;4.93;;
72621;SDS011;60665;53.506;9.582;2022-12-20T07:09:06;9.05;;;4.75;;
72621;SDS011;60665;53.506;9.582;2022-12-20T07:11:33;9.18;;;4.55;;
72621;SDS011;60665;53.506;9.582;2022-12-20T07:13:58;8.25;;;4.88;;
72621;SDS011;60665;53.506;9.582;2022-12-20T07:16:24;12.23;;;5.75;;
72621;SDS011;60665;53.506;9.582;2022-12-20T07:18:50;9.88;;;4.78;;
72621;SDS011;60665;53.506;9.582;2022-12-20T07:21:16;10.80;;;5.22;;
72621;SDS011;60665;53.506;9.582;2022-12-20T07:23:43;9.80;;;5.25;;
72621;SDS011;60665;53.506;9.582;2022-12-20T15:13:10;12.63;;;6.25;;
72621;SDS011;60665;53.506;9.582;2022-12-20T15:15:37;11.00;;;5.03;;
72621;SDS011;60665;53.506;9.582;2022-12-20T15:18:07;10.63;;;5.68;;
72621;SDS011;60665;53.506;9.582;2022-12-20T15:20:43;9.00;;;5.00;;
72621;SDS011;60665;53.506;9.582;2022-12-20T15:23:15;10.57;;;5.13;;
72621;SDS011;60665;53.506;9.582;2022-12-20T15:25:41;9.82;;;5.03;;
72621;SDS011;60665;53.506;9.582;2022-12-20T15:28:14;11.07;;;4.90;;
72621;SDS011;60665;53.506;9.582;2022-12-20T15:30:44;8.25;;;5.07;;
72621;SDS011;60665;53.506;9.582;2022-12-20T15:33:25;10.73;;;4.95;;
72621;SDS011;60665;53.506;9.582;2022-12-20T15:35:51;10.52;;;6.07;;
72621;SDS011;60665;53.506;9.582;2022-12-20T15:38:21;12.60;;;6.38;;
72621;SDS011;60665;53.506;9.582;2022-12-20T15:40:49;15.52;;;10.90;;
72621;SDS011;60665;53.506;9.582;2022-12-20T15:43:18;12.75;;;7.70;;
72621;SDS011;60665;53.506;9.582;2022-12-20T15:45:46;17.55;;;10.43;;
72621;SDS011;60665;53.506;9.582;2022-12-20T15:48:14;14.18;;;7.15;;
72621;SDS011;60665;53.506;9.582;2022-12-20T15:50:53;10.05;;;6.05;;
72621;SDS011;60665;53.506;9.582;2022-12-20T15:53:24;8.73;;;5.50;;
72621;SDS011;60665;53.506;9.582;2022-12-20T15:55:52;10.57;;;5.07;;
72621;SDS011;60665;53.506;9.582;2022-12-20T15:58:18;11.25;;;5.40;;
72621;SDS011;60665;53.506;9.582;2022-12-20T16:00:44;11.23;;;5.07;;
72621;SDS011;60665;53.506;9.582;2022-12-20T16:03:14;7.55;;;4.53;;
72621;SDS011;60665;53.506;9.582;2022-12-20T16:05:45;9.20;;;5.50;;
72621;SDS011;60665;53.506;9.582;2022-12-20T16:08:11;14.43;;;5.25;;
72621;SDS011;60665;53.506;9.582;2022-12-20T16:10:36;10.80;;;6.20;;
72621;SDS011;60665;53.506;9.582;2022-12-20T16:13:02;9.40;;;5.72;;
72621;SDS011;60665;53.506;9.582;2022-12-20T16:15:28;10.32;;;5.72;;
72621;SDS011;60665;53.506;9.582;2022-12-20T16:17:54;9.98;;;5.70;;
72621;SDS011;60665;53.506;9.582;2022-12-20T16:20:19;9.80;;;5.68;;
72621;SDS011;60665;53.506;9.582;2022-12-20T16:22:45;9.77;;;5.75;;
72621;SDS011;60665;53.506;9.582;2022-12-20T16:28:08;21.30;;;9.48;;
72621;SDS011;60665;53.506;9.582;2022-12-20T16:30:34;12.93;;;6.50;;
72621;SDS011;60665;53.506;9.582;2022-12-20T16:32:59;11.73;;;6.75;;
72621;SDS011;60665;53.506;9.582;2022-12-20T16:37:57;10.20;;;6.10;;
72621;SDS011;60665;53.506;9.582;2022-12-20T16:40:24;12.00;;;6.82;;
72621;SDS011;60665;53.506;9.582;2022-12-20T16:45:22;10.02;;;5.65;;
72621;SDS011;60665;53.506;9.582;2022-12-20T16:47:49;11.77;;;5.38;;
72621;SDS011;60665;53.506;9.582;2022-12-20T16:50:15;8.00;;;4.95;;
72621;SDS011;60665;53.506;9.582;2022-12-20T16:52:43;9.93;;;5.18;;
72621;SDS011;60665;53.506;9.582;2022-12-20T16:55:11;8.18;;;4.63;;
72621;SDS011;60665;53.506;9.582;2022-12-20T16:57:38;9.63;;;5.25;;
72621;SDS011;60665;53.506;9.582;2022-12-20T17:00:04;10.30;;;5.13;;
72621;SDS011;60665;53.506;9.582;2022-12-20T17:02:34;10.20;;;5.55;;
72621;SDS011;60665;53.506;9.582;2022-12-20T17:04:59;11.18;;;5.30;;
72621;SDS011;60665;53.506;9.582;2022-12-20T17:07:25;8.60;;;4.88;;
72621;SDS011;60665;53.506;9.582;2022-12-20T17:09:51;10.20;;;5.20;;
72621;SDS011;60665;53.506;9.582;2022-12-20T17:12:17;10.82;;;4.57;;
72621;SDS011;60665;53.506;9.582;2022-12-20T17:14:44;10.80;;;5.20;;
72621;SDS011;60665;53.506;9.582;2022-12-20T17:17:10;14.48;;;5.88;;
72621;SDS011;60665;53.506;9.582;2022-12-20T17:19:36;9.55;;;5.72;;
72621;SDS011;60665;53.506;9.582;2022-12-20T17:22:01;8.98;;;5.57;;
72621;SDS011;60665;53.506;9.582;2022-12-20T17:24:26;10.23;;;5.22;;
72621;SDS011;60665;53.506;9.582;2022-12-20T17:26:52;9.52;;;6.10;;
72621;SDS011;60665;53.506;9.582;2022-12-20T17:29:17;11.05;;;6.20;;
72621;SDS011;60665;53.506;9.582;2022-12-20T17:31:44;15.88;;;8.20;;
72621;SDS011;60665;53.506;9.582;2022-12-20T17:34:21;13.35;;;7.78;;
72621;SDS011;60665;53.506;9.582;2022-12-20T17:36:49;11.23;;;7.18;;
72621;SDS011;60665;53.506;9.582;2022-12-20T17:39:16;10.05;;;6.20;;
72621;SDS011;60665;53.506;9.582;2022-12-20T17:41:42;12.50;;;6.13;;
72621;SDS011;60665;53.506;9.582;2022-12-20T17:44:18;11.75;;;6.97;;
72621;SDS011;60665;53.506;9.582;2022-12-20T17:46:44;12.05;;;6.60;;
72621;SDS011;60665;53.506;9.582;2022-12-20T17:49:10;11.77;;;6.57;;
72621;SDS011;60665;53.506;9.582;2022-12-20T17:51:35;11.77;;;6.45;;
72621;SDS011;60665;53.506;9.582;2022-12-20T17:54:01;14.20;;;7.05;;
72621;SDS011;60665;53.506;9.582;2022-12-20T17:56:27;12.32;;;6.57;;
72621;SDS011;60665;53.506;9.582;2022-12-20T17:58:54;14.70;;;6.25;;
72621;SDS011;60665;53.506;9.582;2022-12-20T18:01:25;12.48;;;6.13;;
72621;SDS011;60665;53.506;9.582;2022-12-20T18:03:55;12.07;;;6.05;;
72621;SDS011;60665;53.506;9.582;2022-12-20T18:06:21;11.48;;;6.20;;
72621;SDS011;60665;53.506;9.582;2022-12-20T18:08:48;10.52;;;6.15;;
72621;SDS011;60665;53.506;9.582;2022-12-20T18:11:14;10.45;;;6.10;;
72621;SDS011;60665;53.506;9.582;2022-12-20T18:13:46;16.90;;;8.25;;
72621;SDS011;60665;53.506;9.582;2022-12-20T18:16:14;13.38;;;6.53;;
72621;SDS011;60665;53.506;9.582;2022-12-20T18:18:41;12.60;;;6.47;;
72621;SDS011;60665;53.506;9.582;2022-12-20T18:21:07;10.88;;;6.50;;
72621;SDS011;60665;53.506;9.582;2022-12-20T18:23:34;13.98;;;6.53;;
72621;SDS011;60665;53.506;9.582;2022-12-20T18:28:33;10.98;;;6.47;;
72621;SDS011;60665;53.506;9.582;2022-12-20T18:30:59;11.65;;;6.65;;
72621;SDS011;60665;53.506;9.582;2022-12-20T18:33:26;10.77;;;7.07;;
72621;SDS011;60665;53.506;9.582;2022-12-20T18:38:40;10.65;;;7.68;;
72621;SDS011;60665;53.506;9.582;2022-12-20T18:41:08;12.18;;;7.85;;
72621;SDS011;60665;53.506;9.582;2022-12-20T18:43:36;10.48;;;6.88;;
72621;SDS011;60665;53.506;9.582;2022-12-20T18:48:29;10.40;;;6.95;;
72621;SDS011;60665;53.506;9.582;2022-12-20T18:50:54;11.80;;;7.53;;
72621;SDS011;60665;53.506;9.582;2022-12-20T18:53:19;13.05;;;7.10;;
72621;SDS011;60665;53.506;9.582;2022-12-20T18:55:45;13.02;;;6.88;;
72621;SDS011;60665;53.506;9.582;2022-12-20T18:58:10;13.02;;;7.72;;
72621;SDS011;60665;53.506;9.582;2022-12-20T19:00:37;12.48;;;7.40;;
72621;SDS011;60665;53.506;9.582;2022-12-20T19:03:02;12.90;;;7.40;;
72621;SDS011;60665;53.506;9.582;2022-12-20T19:05:31;11.05;;;6.63;;
72621;SDS011;60665;53.506;9.582;2022-12-20T19:07:56;16.05;;;9.55;;
72621;SDS011;60665;53.506;9.582;2022-12-20T19:10:22;15.40;;;8.45;;
72621;SDS011;60665;53.506;9.582;2022-12-20T19:12:47;13.50;;;7.28;;
72621;SDS011;60665;53.506;9.582;2022-12-20T19:15:13;11.48;;;7.68;;
72621;SDS011;60665;53.506;9.582;2022-12-20T19:17:38;13.05;;;7.93;;
72621;SDS011;60665;53.506;9.582;2022-12-20T19:20:04;15.52;;;8.30;;
72621;SDS011;60665;53.506;9.582;2022-12-20T19:22:30;14.70;;;8.05;;
72621;SDS011;60665;53.506;9.582;2022-12-20T19:24:55;14.45;;;8.02;;
72621;SDS011;60665;53.506;9.582;2022-12-20T19:27:21;13.77;;;8.13;;
72621;SDS011;60665;53.506;9.582;2022-12-20T19:29:47;14.15;;;9.15;;
72621;SDS011;60665;53.506;9.582;2022-12-20T19:32:13;14.73;;;9.30;;
72621;SDS011;60665;53.506;9.582;2022-12-20T19:34:38;15.00;;;9.30;;
72621;SDS011;60665;53.506;9.582;2022-12-20T19:37:04;14.73;;;9.18;;
72621;SDS011;60665;53.506;9.582;2022-12-20T19:39:29;16.13;;;9.32;;
72621;SDS011;60665;53.506;9.582;2022-12-20T19:41:55;13.77;;;8.80;;
72621;SDS011;60665;53.506;9.582;2022-12-20T19:44:20;17.30;;;9.50;;
72621;SDS011;60665;53.506;9.582;2022-12-20T19:46:45;17.58;;;10.07;;
72621;SDS011;60665;53.506;9.582;2022-12-20T19:49:11;17.48;;;9.88;;
72621;SDS011;60665;53.506;9.582;2022-12-20T19:51:37;16.52;;;10.45;;
72621;SDS011;60665;53.506;9.582;2022-12-20T19:54:03;19.17;;;10.88;;
72621;SDS011;60665;53.506;9.582;2022-12-20T19:56:29;17.33;;;11.02;;
72621;SDS011;60665;53.506;9.582;2022-12-20T19:58:57;16.73;;;10.95;;
72621;SDS011;60665;53.506;9.582;2022-12-20T20:01:23;16.95;;;10.68;;
72621;SDS011;60665;53.506;9.582;2022-12-20T20:03:51;19.08;;;11.15;;
72621;SDS011;60665;53.506;9.582;2022-12-20T20:06:17;26.27;;;16.50;;
72621;SDS011;60665;53.506;9.582;2022-12-20T20:08:42;19.02;;;12.38;;
72621;SDS011;60665;53.506;9.582;2022-12-20T20:11:09;18.95;;;11.70;;
72621;SDS011;60665;53.506;9.582;2022-12-20T20:13:35;17.65;;;11.32;;
72621;SDS011;60665;53.506;9.582;2022-12-20T20:16:01;18.33;;;10.93;;
72621;SDS011;60665;53.506;9.582;2022-12-20T20:18:33;18.42;;;11.90;;
72621;SDS011;60665;53.506;9.582;2022-12-20T20:21:03;20.80;;;13.10;;
72621;SDS011;60665;53.506;9.582;2022-12-20T20:23:33;20.83;;;12.13;;
72621;SDS011;60665;53.506;9.582;2022-12-20T20:25:59;19.85;;;12.63;;
72621;SDS011;60665;53.506;9.582;2022-12-20T20:28:25;21.52;;;12.68;;
72621;SDS011;60665;53.506;9.582;2022-12-20T20:30:51;17.70;;;11.82;;
72621;SDS011;60665;53.506;9.582;2022-12-20T20:33:18;16.45;;;11.48;;
72621;SDS011;60665;53.506;9.582;2022-12-20T20:35:51;19.25;;;12.05;;
72621;SDS011;60665;53.506;9.582;2022-12-20T20:38:18;18.67;;;11.75;;
72621;SDS011;60665;53.506;9.582;2022-12-20T20:40:44;18.40;;;11.70;;
72621;SDS011;60665;53.506;9.582;2022-12-20T20:43:10;20.15;;;12.30;;
72621;SDS011;60665;53.506;9.582;2022-12-20T20:45:35;20.15;;;12.93;;
72621;SDS011;60665;53.506;9.582;2022-12-20T20:48:00;21.83;;;13.65;;
72621;SDS011;60665;53.506;9.582;2022-12-20T20:50:26;22.30;;;13.73;;
72621;SDS011;60665;53.506;9.582;2022-12-20T20:52:51;21.48;;;12.73;;
72621;SDS011;60665;53.506;9.582;2022-12-20T20:55:38;19.95;;;13.68;;
72621;SDS011;60665;53.506;9.582;2022-12-20T20:58:03;18.80;;;12.55;;
72621;SDS011;60665;53.506;9.582;2022-12-20T21:00:29;18.80;;;12.48;;
72621;SDS011;60665;53.506;9.582;2022-12-20T21:02:56;21.08;;;12.98;;
72621;SDS011;60665;53.506;9.582;2022-12-20T21:05:21;19.98;;;12.45;;
72621;SDS011;60665;53.506;9.582;2022-12-20T21:07:47;23.10;;;13.70;;
72621;SDS011;60665;53.506;9.582;2022-12-20T21:10:12;21.17;;;13.57;;
72621;SDS011;60665;53.506;9.582;2022-12-20T21:12:38;19.65;;;13.35;;
72621;SDS011;60665;53.506;9.582;2022-12-20T21:15:04;21.65;;;12.93;;
72621;SDS011;60665;53.506;9.582;2022-12-20T21:17:31;22.00;;;13.25;;
72621;SDS011;60665;53.506;9.582;2022-12-20T21:19:57;18.25;;;12.50;;
72621;SDS011;60665;53.506;9.582;2022-12-20T21:22:23;21.42;;;12.13;;
72621;SDS011;60665;53.506;9.582;2022-12-20T21:24:48;22.48;;;13.25;;
72621;SDS011;60665;53.506;9.582;2022-12-20T21:27:13;19.38;;;12.75;;
72621;SDS011;60665;53.506;9.582;2022-12-20T21:29:39;20.15;;;12.02;;
72621;SDS011;60665;53.506;9.582;2022-12-20T21:32:04;21.65;;;12.85;;
72621;SDS011;60665;53.506;9.582;2022-12-20T21:34:31;19.90;;;13.55;;
72621;SDS011;60665;53.506;9.582;2022-12-20T21:36:56;18.48;;;11.73;;
72621;SDS011;60665;53.506;9.582;2022-12-20T21:39:22;21.08;;;13.40;;
72621;SDS011;60665;53.506;9.582;2022-12-20T21:41:48;20.17;;;12.55;;
72621;SDS011;60665;53.506;9.582;2022-12-20T21:44:13;19.60;;;12.55;;
72621;SDS011;60665;53.506;9.582;2022-12-20T21:46:39;16.58;;;11.80;;
72621;SDS011;60665;53.506;9.582;2022-12-20T21:49:04;19.98;;;12.50;;
72621;SDS011;60665;53.506;9.582;2022-12-20T21:51:30;18.38;;;12.35;;
72621;SDS011;60665;53.506;9.582;2022-12-20T21:53:56;20.23;;;12.07;;
